sensor_id;sensor_type;location;lat;lon;timestamp;P1;durP1;ratioP1;P2;durP2;ratioP2
34695;SDS011;20918;51.138;17.370;2022-08-02T00:00:00;3.98;;;3.58;;
34695;SDS011;20918;51.138;17.370;2022-08-02T00:03:05;7.15;;;3.60;;
34695;SDS011;20918;51.138;17.370;2022-08-02T00:06:06;3.52;;;3.20;;
34695;SDS011;20918;51.138;17.370;2022-08-02T00:09:07;3.45;;;3.15;;
34695;SDS011;20918;51.138;17.370;2022-08-02T00:12:08;5.45;;;3.58;;
34695;SDS011;20918;51.138;17.370;2022-08-02T00:15:09;3.50;;;3.20;;
34695;SDS011;20918;51.138;17.370;2022-08-02T00:18:11;4.35;;;3.55;;
34695;SDS011;20918;51.138;17.370;2022-08-02T00:21:13;3.55;;;3.25;;
34695;SDS011;20918;51.138;17.370;2022-08-02T00:24:14;3.98;;;3.00;;
34695;SDS011;20918;51.138;17.370;2022-08-02T00:27:15;3.70;;;3.27;;
34695;SDS011;20918;51.138;17.370;2022-08-02T00:30:16;6.12;;;3.50;;
34695;SDS011;20918;51.138;17.370;2022-08-02T00:33:17;4.55;;;3.22;;
34695;SDS011;20918;51.138;17.370;2022-08-02T00:36:19;3.83;;;3.30;;
34695;SDS011;20918;51.138;17.370;2022-08-02T00:39:20;4.75;;;3.52;;
34695;SDS011;20918;51.138;17.370;2022-08-02T00:42:21;5.28;;;3.85;;
34695;SDS011;20918;51.138;17.370;2022-08-02T00:45:22;4.25;;;3.17;;
34695;SDS011;20918;51.138;17.370;2022-08-02T00:48:23;6.87;;;3.92;;
34695;SDS011;20918;51.138;17.370;2022-08-02T00:51:24;4.05;;;3.65;;
34695;SDS011;20918;51.138;17.370;2022-08-02T00:54:25;4.72;;;3.47;;
34695;SDS011;20918;51.138;17.370;2022-08-02T00:57:26;4.75;;;3.40;;
34695;SDS011;20918;51.138;17.370;2022-08-02T01:00:27;3.95;;;3.65;;
34695;SDS011;20918;51.138;17.370;2022-08-02T01:03:28;4.08;;;3.70;;
34695;SDS011;20918;51.138;17.370;2022-08-02T01:06:29;6.40;;;3.37;;
34695;SDS011;20918;51.138;17.370;2022-08-02T01:09:32;4.97;;;3.42;;
34695;SDS011;20918;51.138;17.370;2022-08-02T01:12:33;4.80;;;3.47;;
34695;SDS011;20918;51.138;17.370;2022-08-02T01:18:41;4.22;;;2.92;;
34695;SDS011;20918;51.138;17.370;2022-08-02T01:28:50;10.68;;;3.30;;
34695;SDS011;20918;51.138;17.370;2022-08-02T01:32:07;7.33;;;3.85;;
34695;SDS011;20918;51.138;17.370;2022-08-02T01:35:15;5.15;;;3.50;;
34695;SDS011;20918;51.138;17.370;2022-08-02T01:38:29;3.77;;;3.30;;
34695;SDS011;20918;51.138;17.370;2022-08-02T01:41:32;6.20;;;3.20;;
34695;SDS011;20918;51.138;17.370;2022-08-02T01:44:35;6.92;;;3.42;;
34695;SDS011;20918;51.138;17.370;2022-08-02T01:47:40;8.83;;;3.52;;
34695;SDS011;20918;51.138;17.370;2022-08-02T01:50:44;11.12;;;3.90;;
34695;SDS011;20918;51.138;17.370;2022-08-02T01:53:49;5.47;;;2.77;;
34695;SDS011;20918;51.138;17.370;2022-08-02T01:56:51;7.58;;;3.72;;
34695;SDS011;20918;51.138;17.370;2022-08-02T01:59:55;7.95;;;3.55;;
34695;SDS011;20918;51.138;17.370;2022-08-02T02:02:59;4.90;;;3.45;;
34695;SDS011;20918;51.138;17.370;2022-08-02T02:06:05;4.40;;;3.77;;
34695;SDS011;20918;51.138;17.370;2022-08-02T02:09:09;4.50;;;3.55;;
34695;SDS011;20918;51.138;17.370;2022-08-02T02:12:13;4.47;;;3.90;;
34695;SDS011;20918;51.138;17.370;2022-08-02T02:15:16;5.58;;;3.90;;
34695;SDS011;20918;51.138;17.370;2022-08-02T02:18:22;6.62;;;4.00;;
34695;SDS011;20918;51.138;17.370;2022-08-02T02:21:25;6.12;;;3.90;;
34695;SDS011;20918;51.138;17.370;2022-08-02T02:24:26;7.05;;;3.65;;
34695;SDS011;20918;51.138;17.370;2022-08-02T02:27:27;4.83;;;3.72;;
34695;SDS011;20918;51.138;17.370;2022-08-02T02:30:30;6.40;;;4.05;;
34695;SDS011;20918;51.138;17.370;2022-08-02T02:33:34;4.87;;;3.60;;
34695;SDS011;20918;51.138;17.370;2022-08-02T02:36:47;5.58;;;3.27;;
34695;SDS011;20918;51.138;17.370;2022-08-02T02:39:51;6.67;;;3.77;;
34695;SDS011;20918;51.138;17.370;2022-08-02T02:42:55;6.72;;;3.72;;
34695;SDS011;20918;51.138;17.370;2022-08-02T02:45:59;6.05;;;4.20;;
34695;SDS011;20918;51.138;17.370;2022-08-02T02:49:03;5.00;;;3.77;;
34695;SDS011;20918;51.138;17.370;2022-08-02T02:52:04;7.62;;;3.70;;
34695;SDS011;20918;51.138;17.370;2022-08-02T02:55:07;4.10;;;3.65;;
34695;SDS011;20918;51.138;17.370;2022-08-02T02:58:09;4.22;;;3.67;;
34695;SDS011;20918;51.138;17.370;2022-08-02T03:01:11;5.97;;;3.83;;
34695;SDS011;20918;51.138;17.370;2022-08-02T03:04:30;5.85;;;4.00;;
34695;SDS011;20918;51.138;17.370;2022-08-02T03:07:33;7.15;;;3.62;;
34695;SDS011;20918;51.138;17.370;2022-08-02T03:10:34;6.65;;;3.72;;
34695;SDS011;20918;51.138;17.370;2022-08-02T03:13:36;4.92;;;4.10;;
34695;SDS011;20918;51.138;17.370;2022-08-02T03:16:51;5.87;;;3.72;;
34695;SDS011;20918;51.138;17.370;2022-08-02T03:19:50;5.33;;;4.42;;
34695;SDS011;20918;51.138;17.370;2022-08-02T03:22:51;8.08;;;4.58;;
34695;SDS011;20918;51.138;17.370;2022-08-02T03:25:52;7.95;;;4.40;;
34695;SDS011;20918;51.138;17.370;2022-08-02T03:28:53;9.25;;;3.70;;
34695;SDS011;20918;51.138;17.370;2022-08-02T03:31:54;5.03;;;4.10;;
34695;SDS011;20918;51.138;17.370;2022-08-02T03:34:56;5.62;;;3.72;;
34695;SDS011;20918;51.138;17.370;2022-08-02T03:37:57;9.35;;;4.05;;
34695;SDS011;20918;51.138;17.370;2022-08-02T03:40:59;5.97;;;4.28;;
34695;SDS011;20918;51.138;17.370;2022-08-02T03:44:03;5.45;;;3.65;;
34695;SDS011;20918;51.138;17.370;2022-08-02T03:47:06;8.10;;;3.92;;
34695;SDS011;20918;51.138;17.370;2022-08-02T03:50:12;4.47;;;3.92;;
34695;SDS011;20918;51.138;17.370;2022-08-02T03:53:13;8.18;;;3.77;;
34695;SDS011;20918;51.138;17.370;2022-08-02T03:56:15;8.70;;;3.92;;
34695;SDS011;20918;51.138;17.370;2022-08-02T03:59:17;5.62;;;4.00;;
34695;SDS011;20918;51.138;17.370;2022-08-02T04:02:18;6.87;;;3.85;;
34695;SDS011;20918;51.138;17.370;2022-08-02T04:05:19;11.05;;;3.60;;
34695;SDS011;20918;51.138;17.370;2022-08-02T04:08:20;4.95;;;3.47;;
34695;SDS011;20918;51.138;17.370;2022-08-02T04:11:21;4.10;;;3.30;;
34695;SDS011;20918;51.138;17.370;2022-08-02T04:14:31;4.03;;;3.62;;
34695;SDS011;20918;51.138;17.370;2022-08-02T04:17:32;8.18;;;3.52;;
34695;SDS011;20918;51.138;17.370;2022-08-02T04:20:38;5.12;;;4.35;;
34695;SDS011;20918;51.138;17.370;2022-08-02T04:23:41;4.75;;;4.33;;
34695;SDS011;20918;51.138;17.370;2022-08-02T04:26:45;5.40;;;4.03;;
34695;SDS011;20918;51.138;17.370;2022-08-02T04:29:47;5.35;;;3.98;;
34695;SDS011;20918;51.138;17.370;2022-08-02T04:32:49;6.83;;;4.37;;
34695;SDS011;20918;51.138;17.370;2022-08-02T04:35:51;4.55;;;4.15;;
34695;SDS011;20918;51.138;17.370;2022-08-02T04:38:53;4.70;;;4.28;;
34695;SDS011;20918;51.138;17.370;2022-08-02T04:41:54;6.70;;;4.72;;
34695;SDS011;20918;51.138;17.370;2022-08-02T04:44:55;7.85;;;4.53;;
34695;SDS011;20918;51.138;17.370;2022-08-02T04:47:57;6.67;;;5.05;;
34695;SDS011;20918;51.138;17.370;2022-08-02T04:50:58;4.95;;;4.50;;
34695;SDS011;20918;51.138;17.370;2022-08-02T04:53:59;8.68;;;4.67;;
34695;SDS011;20918;51.138;17.370;2022-08-02T04:57:00;5.60;;;4.80;;
34695;SDS011;20918;51.138;17.370;2022-08-02T05:00:04;6.62;;;5.70;;
34695;SDS011;20918;51.138;17.370;2022-08-02T05:03:07;6.92;;;5.60;;
34695;SDS011;20918;51.138;17.370;2022-08-02T05:06:08;6.85;;;4.37;;
34695;SDS011;20918;51.138;17.370;2022-08-02T05:09:09;5.78;;;5.15;;
34695;SDS011;20918;51.138;17.370;2022-08-02T05:12:10;6.83;;;4.58;;
34695;SDS011;20918;51.138;17.370;2022-08-02T05:15:11;6.20;;;5.05;;
34695;SDS011;20918;51.138;17.370;2022-08-02T05:18:15;6.58;;;4.65;;
34695;SDS011;20918;51.138;17.370;2022-08-02T05:21:17;5.12;;;4.67;;
34695;SDS011;20918;51.138;17.370;2022-08-02T05:24:18;5.30;;;4.80;;
34695;SDS011;20918;51.138;17.370;2022-08-02T05:27:19;4.67;;;4.33;;
34695;SDS011;20918;51.138;17.370;2022-08-02T05:30:20;8.35;;;5.12;;
34695;SDS011;20918;51.138;17.370;2022-08-02T05:33:21;5.40;;;4.90;;
34695;SDS011;20918;51.138;17.370;2022-08-02T05:36:22;5.20;;;4.58;;
34695;SDS011;20918;51.138;17.370;2022-08-02T05:39:23;6.78;;;5.08;;
34695;SDS011;20918;51.138;17.370;2022-08-02T05:42:25;7.35;;;4.90;;
34695;SDS011;20918;51.138;17.370;2022-08-02T05:45:26;6.85;;;4.85;;
34695;SDS011;20918;51.138;17.370;2022-08-02T05:48:27;4.95;;;4.55;;
34695;SDS011;20918;51.138;17.370;2022-08-02T05:51:32;9.50;;;5.05;;
34695;SDS011;20918;51.138;17.370;2022-08-02T05:54:43;7.00;;;5.15;;
34695;SDS011;20918;51.138;17.370;2022-08-02T06:01:10;9.83;;;5.40;;
34695;SDS011;20918;51.138;17.370;2022-08-02T06:04:19;5.95;;;5.35;;
34695;SDS011;20918;51.138;17.370;2022-08-02T06:07:21;5.80;;;5.30;;
34695;SDS011;20918;51.138;17.370;2022-08-02T06:10:24;7.12;;;4.92;;
34695;SDS011;20918;51.138;17.370;2022-08-02T06:13:27;5.62;;;5.00;;
34695;SDS011;20918;51.138;17.370;2022-08-02T06:16:29;4.83;;;4.42;;
34695;SDS011;20918;51.138;17.370;2022-08-02T06:19:31;7.95;;;5.42;;
34695;SDS011;20918;51.138;17.370;2022-08-02T06:22:33;7.60;;;5.58;;
34695;SDS011;20918;51.138;17.370;2022-08-02T06:25:35;5.33;;;4.90;;
34695;SDS011;20918;51.138;17.370;2022-08-02T06:28:39;6.58;;;5.17;;
34695;SDS011;20918;51.138;17.370;2022-08-02T06:31:41;5.80;;;5.05;;
34695;SDS011;20918;51.138;17.370;2022-08-02T06:34:42;8.18;;;5.10;;
34695;SDS011;20918;51.138;17.370;2022-08-02T06:37:47;7.50;;;4.80;;
34695;SDS011;20918;51.138;17.370;2022-08-02T06:41:00;4.97;;;4.33;;
34695;SDS011;20918;51.138;17.370;2022-08-02T06:44:08;7.25;;;4.60;;
34695;SDS011;20918;51.138;17.370;2022-08-02T06:47:09;4.67;;;4.22;;
34695;SDS011;20918;51.138;17.370;2022-08-02T06:50:11;5.80;;;5.00;;
34695;SDS011;20918;51.138;17.370;2022-08-02T06:53:12;4.22;;;3.87;;
34695;SDS011;20918;51.138;17.370;2022-08-02T06:56:13;5.78;;;4.65;;
34695;SDS011;20918;51.138;17.370;2022-08-02T06:59:14;4.08;;;3.77;;
34695;SDS011;20918;51.138;17.370;2022-08-02T07:02:15;5.80;;;3.95;;
34695;SDS011;20918;51.138;17.370;2022-08-02T07:05:17;3.80;;;3.50;;
34695;SDS011;20918;51.138;17.370;2022-08-02T07:08:18;5.10;;;4.22;;
34695;SDS011;20918;51.138;17.370;2022-08-02T07:11:20;6.35;;;4.03;;
34695;SDS011;20918;51.138;17.370;2022-08-02T07:14:23;3.90;;;3.52;;
34695;SDS011;20918;51.138;17.370;2022-08-02T07:17:24;5.33;;;3.77;;
34695;SDS011;20918;51.138;17.370;2022-08-02T07:20:25;6.50;;;3.65;;
34695;SDS011;20918;51.138;17.370;2022-08-02T07:23:26;4.50;;;3.70;;
34695;SDS011;20918;51.138;17.370;2022-08-02T07:26:27;4.53;;;3.60;;
34695;SDS011;20918;51.138;17.370;2022-08-02T07:29:29;3.33;;;2.98;;
34695;SDS011;20918;51.138;17.370;2022-08-02T07:32:30;4.75;;;3.17;;
34695;SDS011;20918;51.138;17.370;2022-08-02T07:35:32;9.10;;;3.40;;
34695;SDS011;20918;51.138;17.370;2022-08-02T07:38:33;6.97;;;3.20;;
34695;SDS011;20918;51.138;17.370;2022-08-02T07:41:34;10.53;;;3.22;;
34695;SDS011;20918;51.138;17.370;2022-08-02T07:44:35;3.47;;;2.98;;
34695;SDS011;20918;51.138;17.370;2022-08-02T07:47:40;5.50;;;3.52;;
34695;SDS011;20918;51.138;17.370;2022-08-02T07:50:44;4.53;;;3.20;;
34695;SDS011;20918;51.138;17.370;2022-08-02T07:53:46;3.58;;;2.77;;
34695;SDS011;20918;51.138;17.370;2022-08-02T07:56:47;4.03;;;2.90;;
34695;SDS011;20918;51.138;17.370;2022-08-02T07:59:48;2.80;;;2.60;;
34695;SDS011;20918;51.138;17.370;2022-08-02T08:02:50;3.55;;;2.92;;
34695;SDS011;20918;51.138;17.370;2022-08-02T08:05:52;3.00;;;2.50;;
34695;SDS011;20918;51.138;17.370;2022-08-02T08:08:53;3.70;;;2.65;;
34695;SDS011;20918;51.138;17.370;2022-08-02T08:11:54;3.25;;;2.50;;
34695;SDS011;20918;51.138;17.370;2022-08-02T08:14:55;2.72;;;2.25;;
34695;SDS011;20918;51.138;17.370;2022-08-02T08:17:57;4.15;;;2.72;;
34695;SDS011;20918;51.138;17.370;2022-08-02T08:20:58;3.77;;;2.77;;
34695;SDS011;20918;51.138;17.370;2022-08-02T08:23:59;3.20;;;2.25;;
34695;SDS011;20918;51.138;17.370;2022-08-02T08:27:02;2.27;;;2.08;;
34695;SDS011;20918;51.138;17.370;2022-08-02T08:30:06;2.77;;;2.00;;
34695;SDS011;20918;51.138;17.370;2022-08-02T08:33:08;2.80;;;2.00;;
34695;SDS011;20918;51.138;17.370;2022-08-02T08:36:10;3.05;;;1.70;;
34695;SDS011;20918;51.138;17.370;2022-08-02T08:39:11;1.65;;;1.55;;
34695;SDS011;20918;51.138;17.370;2022-08-02T08:42:12;1.77;;;1.40;;
34695;SDS011;20918;51.138;17.370;2022-08-02T08:45:16;2.45;;;1.92;;
34695;SDS011;20918;51.138;17.370;2022-08-02T08:48:17;1.70;;;1.60;;
34695;SDS011;20918;51.138;17.370;2022-08-02T08:51:20;3.52;;;1.70;;
34695;SDS011;20918;51.138;17.370;2022-08-02T08:54:23;2.98;;;1.70;;
34695;SDS011;20918;51.138;17.370;2022-08-02T08:57:25;2.22;;;1.70;;
34695;SDS011;20918;51.138;17.370;2022-08-02T09:00:31;3.72;;;2.10;;
34695;SDS011;20918;51.138;17.370;2022-08-02T09:03:35;1.87;;;1.77;;
34695;SDS011;20918;51.138;17.370;2022-08-02T09:06:39;1.65;;;1.20;;
34695;SDS011;20918;51.138;17.370;2022-08-02T09:09:42;3.05;;;1.82;;
34695;SDS011;20918;51.138;17.370;2022-08-02T09:12:44;1.98;;;1.62;;
34695;SDS011;20918;51.138;17.370;2022-08-02T09:15:51;1.80;;;1.70;;
34695;SDS011;20918;51.138;17.370;2022-08-02T09:19:00;3.47;;;2.20;;
34695;SDS011;20918;51.138;17.370;2022-08-02T09:22:21;2.90;;;2.00;;
34695;SDS011;20918;51.138;17.370;2022-08-02T09:25:22;2.55;;;1.98;;
34695;SDS011;20918;51.138;17.370;2022-08-02T09:28:27;3.50;;;2.00;;
34695;SDS011;20918;51.138;17.370;2022-08-02T09:31:30;2.47;;;2.20;;
34695;SDS011;20918;51.138;17.370;2022-08-02T09:34:43;2.55;;;2.33;;
34695;SDS011;20918;51.138;17.370;2022-08-02T09:37:47;5.15;;;2.00;;
34695;SDS011;20918;51.138;17.370;2022-08-02T09:40:48;2.55;;;2.12;;
34695;SDS011;20918;51.138;17.370;2022-08-02T09:43:49;2.22;;;2.00;;
34695;SDS011;20918;51.138;17.370;2022-08-02T09:46:51;1.82;;;1.67;;
34695;SDS011;20918;51.138;17.370;2022-08-02T09:49:53;4.05;;;1.65;;
34695;SDS011;20918;51.138;17.370;2022-08-02T09:52:56;5.00;;;1.70;;
34695;SDS011;20918;51.138;17.370;2022-08-02T09:55:57;1.52;;;1.42;;
34695;SDS011;20918;51.138;17.370;2022-08-02T09:58:59;2.10;;;1.70;;
34695;SDS011;20918;51.138;17.370;2022-08-02T10:02:09;2.45;;;1.50;;
34695;SDS011;20918;51.138;17.370;2022-08-02T10:05:11;2.12;;;1.40;;
34695;SDS011;20918;51.138;17.370;2022-08-02T10:08:13;1.65;;;1.47;;
34695;SDS011;20918;51.138;17.370;2022-08-02T10:11:15;3.15;;;1.75;;
34695;SDS011;20918;51.138;17.370;2022-08-02T10:14:17;1.45;;;1.30;;
34695;SDS011;20918;51.138;17.370;2022-08-02T10:17:20;2.37;;;1.20;;
34695;SDS011;20918;51.138;17.370;2022-08-02T10:20:21;3.30;;;1.70;;
34695;SDS011;20918;51.138;17.370;2022-08-02T10:23:24;2.67;;;1.72;;
34695;SDS011;20918;51.138;17.370;2022-08-02T10:26:26;1.80;;;1.40;;
34695;SDS011;20918;51.138;17.370;2022-08-02T10:29:30;3.02;;;1.52;;
34695;SDS011;20918;51.138;17.370;2022-08-02T10:32:38;2.02;;;1.25;;
34695;SDS011;20918;51.138;17.370;2022-08-02T10:35:42;1.40;;;1.30;;
34695;SDS011;20918;51.138;17.370;2022-08-02T10:38:47;1.75;;;1.40;;
34695;SDS011;20918;51.138;17.370;2022-08-02T10:41:49;3.17;;;1.32;;
34695;SDS011;20918;51.138;17.370;2022-08-02T10:45:07;1.40;;;1.30;;
34695;SDS011;20918;51.138;17.370;2022-08-02T10:48:14;1.55;;;0.95;;
34695;SDS011;20918;51.138;17.370;2022-08-02T10:51:15;1.47;;;1.10;;
34695;SDS011;20918;51.138;17.370;2022-08-02T10:54:17;1.20;;;1.10;;
34695;SDS011;20918;51.138;17.370;2022-08-02T10:57:21;3.58;;;1.35;;
34695;SDS011;20918;51.138;17.370;2022-08-02T11:00:27;2.50;;;1.40;;
34695;SDS011;20918;51.138;17.370;2022-08-02T11:17:07;3.75;;;1.10;;
34695;SDS011;20918;51.138;17.370;2022-08-02T11:29:44;1.27;;;1.05;;
34695;SDS011;20918;51.138;17.370;2022-08-02T11:32:48;1.55;;;1.10;;
34695;SDS011;20918;51.138;17.370;2022-08-02T11:35:50;1.00;;;1.00;;
34695;SDS011;20918;51.138;17.370;2022-08-02T11:39:07;1.40;;;1.30;;
34695;SDS011;20918;51.138;17.370;2022-08-02T11:42:09;1.95;;;1.12;;
34695;SDS011;20918;51.138;17.370;2022-08-02T11:45:12;3.35;;;1.50;;
34695;SDS011;20918;51.138;17.370;2022-08-02T11:48:28;1.00;;;0.90;;
34695;SDS011;20918;51.138;17.370;2022-08-02T11:51:53;1.30;;;1.20;;
34695;SDS011;20918;51.138;17.370;2022-08-02T11:55:01;1.20;;;1.10;;
34695;SDS011;20918;51.138;17.370;2022-08-02T11:58:03;1.30;;;1.25;;
34695;SDS011;20918;51.138;17.370;2022-08-02T12:01:07;2.70;;;0.90;;
34695;SDS011;20918;51.138;17.370;2022-08-02T12:04:08;2.95;;;1.07;;
34695;SDS011;20918;51.138;17.370;2022-08-02T12:07:09;0.90;;;0.90;;
34695;SDS011;20918;51.138;17.370;2022-08-02T12:10:14;2.30;;;1.00;;
34695;SDS011;20918;51.138;17.370;2022-08-02T12:13:20;1.80;;;1.00;;
34695;SDS011;20918;51.138;17.370;2022-08-02T12:16:24;2.98;;;1.40;;
34695;SDS011;20918;51.138;17.370;2022-08-02T12:19:44;1.60;;;1.12;;
34695;SDS011;20918;51.138;17.370;2022-08-02T12:22:47;1.75;;;1.12;;
34695;SDS011;20918;51.138;17.370;2022-08-02T12:25:59;0.82;;;0.82;;
34695;SDS011;20918;51.138;17.370;2022-08-02T12:29:03;0.85;;;0.82;;
34695;SDS011;20918;51.138;17.370;2022-08-02T12:32:05;4.45;;;1.02;;
34695;SDS011;20918;51.138;17.370;2022-08-02T12:35:07;1.67;;;1.20;;
34695;SDS011;20918;51.138;17.370;2022-08-02T12:38:12;1.92;;;1.30;;
34695;SDS011;20918;51.138;17.370;2022-08-02T12:41:13;3.62;;;1.10;;
34695;SDS011;20918;51.138;17.370;2022-08-02T12:44:15;1.30;;;1.20;;
34695;SDS011;20918;51.138;17.370;2022-08-02T12:47:17;2.50;;;1.20;;
34695;SDS011;20918;51.138;17.370;2022-08-02T12:53:34;1.67;;;1.00;;
34695;SDS011;20918;51.138;17.370;2022-08-02T12:56:36;2.62;;;0.85;;
34695;SDS011;20918;51.138;17.370;2022-08-02T12:59:39;1.57;;;1.20;;
34695;SDS011;20918;51.138;17.370;2022-08-02T13:02:43;1.50;;;1.17;;
34695;SDS011;20918;51.138;17.370;2022-08-02T13:05:44;1.62;;;1.10;;
34695;SDS011;20918;51.138;17.370;2022-08-02T13:08:46;2.67;;;1.15;;
34695;SDS011;20918;51.138;17.370;2022-08-02T13:11:48;1.15;;;1.00;;
34695;SDS011;20918;51.138;17.370;2022-08-02T13:14:49;1.92;;;1.10;;
34695;SDS011;20918;51.138;17.370;2022-08-02T13:17:50;1.12;;;1.02;;
34695;SDS011;20918;51.138;17.370;2022-08-02T13:20:52;1.77;;;1.20;;
34695;SDS011;20918;51.138;17.370;2022-08-02T13:23:54;2.05;;;1.20;;
34695;SDS011;20918;51.138;17.370;2022-08-02T13:26:57;1.37;;;1.00;;
34695;SDS011;20918;51.138;17.370;2022-08-02T13:29:58;1.27;;;1.17;;
34695;SDS011;20918;51.138;17.370;2022-08-02T13:33:01;1.75;;;1.10;;
34695;SDS011;20918;51.138;17.370;2022-08-02T13:36:04;2.05;;;1.20;;
34695;SDS011;20918;51.138;17.370;2022-08-02T13:39:06;2.27;;;1.50;;
34695;SDS011;20918;51.138;17.370;2022-08-02T13:42:08;1.15;;;1.05;;
34695;SDS011;20918;51.138;17.370;2022-08-02T13:45:10;0.90;;;0.90;;
34695;SDS011;20918;51.138;17.370;2022-08-02T13:48:12;2.05;;;1.00;;
34695;SDS011;20918;51.138;17.370;2022-08-02T13:51:13;1.32;;;1.22;;
34695;SDS011;20918;51.138;17.370;2022-08-02T13:54:15;2.72;;;1.30;;
34695;SDS011;20918;51.138;17.370;2022-08-02T13:57:16;0.98;;;0.95;;
34695;SDS011;20918;51.138;17.370;2022-08-02T14:00:17;2.10;;;1.15;;
34695;SDS011;20918;51.138;17.370;2022-08-02T14:03:19;3.83;;;1.32;;
34695;SDS011;20918;51.138;17.370;2022-08-02T14:06:20;3.05;;;1.10;;
34695;SDS011;20918;51.138;17.370;2022-08-02T14:09:21;3.35;;;1.30;;
34695;SDS011;20918;51.138;17.370;2022-08-02T14:12:22;1.67;;;1.22;;
34695;SDS011;20918;51.138;17.370;2022-08-02T14:15:23;2.67;;;1.15;;
34695;SDS011;20918;51.138;17.370;2022-08-02T14:18:24;1.67;;;1.07;;
34695;SDS011;20918;51.138;17.370;2022-08-02T14:21:25;2.08;;;1.60;;
34695;SDS011;20918;51.138;17.370;2022-08-02T14:24:27;2.27;;;1.20;;
34695;SDS011;20918;51.138;17.370;2022-08-02T14:27:28;1.22;;;0.98;;
34695;SDS011;20918;51.138;17.370;2022-08-02T14:30:30;1.27;;;1.17;;
34695;SDS011;20918;51.138;17.370;2022-08-02T14:33:31;1.87;;;1.20;;
34695;SDS011;20918;51.138;17.370;2022-08-02T14:36:32;0.98;;;0.90;;
34695;SDS011;20918;51.138;17.370;2022-08-02T14:39:34;1.90;;;1.22;;
34695;SDS011;20918;51.138;17.370;2022-08-02T14:42:35;1.60;;;1.20;;
34695;SDS011;20918;51.138;17.370;2022-08-02T14:45:36;1.15;;;1.05;;
34695;SDS011;20918;51.138;17.370;2022-08-02T14:48:37;3.02;;;1.07;;
34695;SDS011;20918;51.138;17.370;2022-08-02T14:51:38;1.92;;;1.20;;
34695;SDS011;20918;51.138;17.370;2022-08-02T14:54:39;1.87;;;1.70;;
34695;SDS011;20918;51.138;17.370;2022-08-02T14:57:42;4.50;;;1.30;;
34695;SDS011;20918;51.138;17.370;2022-08-02T15:00:43;2.15;;;1.35;;
34695;SDS011;20918;51.138;17.370;2022-08-02T15:03:45;4.62;;;1.75;;
34695;SDS011;20918;51.138;17.370;2022-08-02T15:06:46;1.32;;;1.15;;
34695;SDS011;20918;51.138;17.370;2022-08-02T15:09:47;3.08;;;1.40;;
34695;SDS011;20918;51.138;17.370;2022-08-02T15:12:49;1.27;;;1.15;;
34695;SDS011;20918;51.138;17.370;2022-08-02T15:15:50;6.22;;;1.60;;
34695;SDS011;20918;51.138;17.370;2022-08-02T15:18:51;1.98;;;1.15;;
34695;SDS011;20918;51.138;17.370;2022-08-02T15:21:53;3.35;;;1.32;;
34695;SDS011;20918;51.138;17.370;2022-08-02T15:24:54;1.92;;;1.45;;
34695;SDS011;20918;51.138;17.370;2022-08-02T15:27:56;1.10;;;1.00;;
34695;SDS011;20918;51.138;17.370;2022-08-02T15:30:57;1.50;;;1.40;;
34695;SDS011;20918;51.138;17.370;2022-08-02T15:33:58;2.70;;;1.27;;
34695;SDS011;20918;51.138;17.370;2022-08-02T15:37:00;3.52;;;2.37;;
34695;SDS011;20918;51.138;17.370;2022-08-02T15:40:02;3.37;;;1.57;;
34695;SDS011;20918;51.138;17.370;2022-08-02T15:43:03;2.87;;;1.42;;
34695;SDS011;20918;51.138;17.370;2022-08-02T15:46:05;2.87;;;1.92;;
34695;SDS011;20918;51.138;17.370;2022-08-02T15:49:06;2.40;;;2.00;;
34695;SDS011;20918;51.138;17.370;2022-08-02T15:52:07;2.40;;;1.57;;
34695;SDS011;20918;51.138;17.370;2022-08-02T15:55:08;2.50;;;1.70;;
34695;SDS011;20918;51.138;17.370;2022-08-02T15:58:09;2.50;;;1.25;;
34695;SDS011;20918;51.138;17.370;2022-08-02T16:01:11;3.33;;;1.45;;
34695;SDS011;20918;51.138;17.370;2022-08-02T16:04:12;2.62;;;1.52;;
34695;SDS011;20918;51.138;17.370;2022-08-02T16:07:13;1.95;;;1.50;;
34695;SDS011;20918;51.138;17.370;2022-08-02T16:10:15;2.30;;;1.40;;
34695;SDS011;20918;51.138;17.370;2022-08-02T16:13:16;3.33;;;1.90;;
34695;SDS011;20918;51.138;17.370;2022-08-02T16:16:36;2.42;;;1.50;;
34695;SDS011;20918;51.138;17.370;2022-08-02T16:19:39;1.80;;;1.30;;
34695;SDS011;20918;51.138;17.370;2022-08-02T16:22:40;3.52;;;1.55;;
34695;SDS011;20918;51.138;17.370;2022-08-02T16:25:42;1.95;;;1.50;;
34695;SDS011;20918;51.138;17.370;2022-08-02T16:28:43;5.12;;;1.70;;
34695;SDS011;20918;51.138;17.370;2022-08-02T16:31:45;3.02;;;1.50;;
34695;SDS011;20918;51.138;17.370;2022-08-02T16:34:47;2.98;;;1.67;;
34695;SDS011;20918;51.138;17.370;2022-08-02T16:37:49;2.33;;;1.40;;
34695;SDS011;20918;51.138;17.370;2022-08-02T16:40:50;2.90;;;1.87;;
34695;SDS011;20918;51.138;17.370;2022-08-02T16:43:51;4.12;;;1.85;;
34695;SDS011;20918;51.138;17.370;2022-08-02T16:46:52;3.45;;;1.75;;
34695;SDS011;20918;51.138;17.370;2022-08-02T16:49:54;1.80;;;1.40;;
34695;SDS011;20918;51.138;17.370;2022-08-02T16:52:55;3.20;;;1.52;;
34695;SDS011;20918;51.138;17.370;2022-08-02T16:55:57;1.90;;;1.50;;
34695;SDS011;20918;51.138;17.370;2022-08-02T16:58:58;2.77;;;1.60;;
34695;SDS011;20918;51.138;17.370;2022-08-02T17:01:59;1.57;;;1.30;;
34695;SDS011;20918;51.138;17.370;2022-08-02T17:05:03;3.35;;;1.27;;
34695;SDS011;20918;51.138;17.370;2022-08-02T17:08:07;1.70;;;1.25;;
34695;SDS011;20918;51.138;17.370;2022-08-02T17:11:08;1.85;;;1.30;;
34695;SDS011;20918;51.138;17.370;2022-08-02T17:14:09;1.65;;;1.20;;
34695;SDS011;20918;51.138;17.370;2022-08-02T17:17:10;2.33;;;1.40;;
34695;SDS011;20918;51.138;17.370;2022-08-02T17:20:11;3.37;;;1.40;;
34695;SDS011;20918;51.138;17.370;2022-08-02T17:23:13;4.45;;;1.47;;
34695;SDS011;20918;51.138;17.370;2022-08-02T17:26:14;2.55;;;1.65;;
34695;SDS011;20918;51.138;17.370;2022-08-02T17:29:15;4.70;;;1.67;;
34695;SDS011;20918;51.138;17.370;2022-08-02T17:32:16;1.22;;;1.12;;
34695;SDS011;20918;51.138;17.370;2022-08-02T17:35:17;2.27;;;1.80;;
34695;SDS011;20918;51.138;17.370;2022-08-02T17:38:18;1.70;;;1.32;;
34695;SDS011;20918;51.138;17.370;2022-08-02T17:41:20;3.35;;;1.57;;
34695;SDS011;20918;51.138;17.370;2022-08-02T17:44:21;2.15;;;1.70;;
34695;SDS011;20918;51.138;17.370;2022-08-02T17:47:23;4.67;;;1.77;;
34695;SDS011;20918;51.138;17.370;2022-08-02T17:50:25;2.20;;;1.55;;
34695;SDS011;20918;51.138;17.370;2022-08-02T17:53:26;4.95;;;2.00;;
34695;SDS011;20918;51.138;17.370;2022-08-02T17:56:27;2.60;;;1.52;;
34695;SDS011;20918;51.138;17.370;2022-08-02T17:59:28;2.98;;;1.70;;
34695;SDS011;20918;51.138;17.370;2022-08-02T18:02:29;2.15;;;1.50;;
34695;SDS011;20918;51.138;17.370;2022-08-02T18:05:30;3.55;;;1.50;;
34695;SDS011;20918;51.138;17.370;2022-08-02T18:08:32;4.80;;;1.82;;
34695;SDS011;20918;51.138;17.370;2022-08-02T18:11:33;3.85;;;2.05;;
34695;SDS011;20918;51.138;17.370;2022-08-02T18:14:34;5.12;;;2.40;;
34695;SDS011;20918;51.138;17.370;2022-08-02T18:17:35;3.22;;;1.95;;
34695;SDS011;20918;51.138;17.370;2022-08-02T18:20:37;4.05;;;2.05;;
34695;SDS011;20918;51.138;17.370;2022-08-02T18:23:38;4.62;;;2.10;;
34695;SDS011;20918;51.138;17.370;2022-08-02T18:26:40;5.67;;;2.20;;
34695;SDS011;20918;51.138;17.370;2022-08-02T18:29:41;6.35;;;2.20;;
34695;SDS011;20918;51.138;17.370;2022-08-02T18:32:43;3.50;;;2.20;;
34695;SDS011;20918;51.138;17.370;2022-08-02T18:35:44;5.10;;;2.08;;
34695;SDS011;20918;51.138;17.370;2022-08-02T18:38:45;9.50;;;3.12;;
34695;SDS011;20918;51.138;17.370;2022-08-02T18:41:47;7.97;;;3.45;;